createdAt,value
2023-02-22T00:00:19.516Z,3.20
2023-02-22T00:02:48.384Z,3.20
2023-02-22T00:05:16.889Z,3.20
2023-02-22T00:07:44.678Z,3.10
2023-02-22T00:10:14.325Z,3.10
2023-02-22T00:12:41.934Z,3.00
2023-02-22T00:15:09.686Z,3.00
2023-02-22T00:17:36.358Z,3.00
2023-02-22T00:20:06.113Z,2.90
2023-02-22T00:22:33.548Z,2.90
2023-02-22T00:25:00.132Z,2.90
2023-02-22T00:27:26.995Z,2.90
2023-02-22T00:29:56.519Z,2.90
2023-02-22T00:32:23.913Z,2.90
2023-02-22T00:34:54.181Z,2.90
2023-02-22T00:37:21.288Z,2.80
2023-02-22T00:39:48.937Z,2.80
2023-02-22T00:42:16.071Z,2.80
2023-02-22T00:44:42.770Z,2.80
2023-02-22T00:47:09.924Z,2.80
2023-02-22T00:49:36.942Z,2.80
2023-02-22T00:52:04.690Z,2.80
2023-02-22T00:54:31.286Z,2.70
2023-02-22T00:56:58.220Z,2.70
2023-02-22T00:59:24.825Z,2.70
2023-02-22T01:01:51.429Z,2.70
2023-02-22T01:04:18.436Z,2.60
2023-02-22T01:06:45.264Z,2.60
2023-02-22T01:09:12.047Z,2.60
2023-02-22T01:11:38.654Z,2.50
2023-02-22T01:14:09.638Z,2.50
2023-02-22T01:16:36.386Z,2.50
2023-02-22T01:19:03.125Z,2.40
2023-02-22T01:21:29.728Z,2.40
2023-02-22T01:23:56.354Z,2.40
2023-02-22T01:26:23.111Z,2.40
2023-02-22T01:28:49.745Z,2.30
2023-02-22T01:31:16.689Z,2.40
2023-02-22T01:33:44.603Z,2.30
2023-02-22T01:36:11.549Z,2.30
2023-02-22T01:38:38.645Z,2.20
2023-02-22T01:41:05.680Z,2.20
2023-02-22T01:43:32.737Z,2.20
2023-02-22T01:46:02.533Z,2.20
2023-02-22T01:48:32.309Z,2.20
2023-02-22T01:51:00.961Z,2.10
2023-02-22T01:53:36.394Z,2.20
2023-02-22T01:56:03.754Z,2.10
2023-02-22T01:58:32.685Z,2.10
2023-02-22T02:00:59.324Z,2.10
2023-02-22T02:03:28.401Z,2.10
2023-02-22T02:05:56.817Z,2.00
2023-02-22T02:08:42.478Z,2.00
2023-02-22T02:11:09.670Z,2.00
2023-02-22T02:13:36.347Z,2.00
2023-02-22T02:16:03.122Z,2.00
2023-02-22T02:18:30.010Z,2.00
2023-02-22T02:20:56.643Z,2.00
2023-02-22T02:23:42.049Z,2.00
2023-02-22T02:26:27.537Z,2.00
2023-02-22T02:29:07.096Z,2.00
2023-02-22T02:31:33.701Z,2.00
2023-02-22T02:34:00.303Z,2.00
2023-02-22T02:36:34.000Z,2.00
2023-02-22T02:39:19.508Z,2.00
2023-02-22T02:41:48.338Z,2.00
2023-02-22T02:44:17.992Z,2.00
2023-02-22T02:46:47.727Z,2.00
2023-02-22T02:49:29.844Z,2.00
2023-02-22T02:51:57.096Z,2.00
2023-02-22T02:54:24.360Z,1.90
2023-02-22T02:56:51.349Z,1.90
2023-02-22T02:59:25.879Z,1.90
2023-02-22T03:02:02.245Z,1.90
2023-02-22T03:04:48.848Z,1.90
2023-02-22T03:07:18.371Z,1.90
2023-02-22T03:09:44.977Z,1.90
2023-02-22T03:12:19.141Z,1.90
2023-02-22T03:14:48.782Z,1.90
2023-02-22T03:17:20.908Z,1.90
2023-02-22T03:19:50.621Z,1.90
2023-02-22T03:22:27.560Z,1.90
2023-02-22T03:25:07.148Z,1.90
2023-02-22T03:27:43.657Z,1.90
2023-02-22T03:30:12.332Z,1.90
2023-02-22T03:32:41.238Z,1.80
2023-02-22T03:35:09.759Z,1.80
2023-02-22T03:37:42.279Z,1.80
2023-02-22T03:40:16.559Z,1.80
2023-02-22T03:42:47.095Z,1.80
2023-02-22T03:45:15.570Z,1.80
2023-02-22T03:47:45.723Z,1.80
2023-02-22T03:50:18.360Z,1.80
2023-02-22T03:52:45.430Z,1.70
2023-02-22T03:55:12.742Z,1.70
2023-02-22T03:57:41.616Z,1.70
2023-02-22T04:00:09.931Z,1.70
2023-02-22T04:02:36.529Z,1.70
2023-02-22T04:05:03.279Z,1.70
2023-02-22T04:07:29.882Z,1.70
2023-02-22T04:09:56.505Z,1.70
2023-02-22T04:12:23.525Z,1.70
2023-02-22T04:14:50.122Z,1.70
2023-02-22T04:17:16.791Z,1.70
2023-02-22T04:19:45.672Z,1.70
2023-02-22T04:22:12.382Z,1.70
2023-02-22T04:24:38.973Z,1.70
2023-02-22T04:27:05.590Z,1.70
2023-02-22T04:29:32.171Z,1.70
2023-02-22T04:31:58.803Z,1.60
2023-02-22T04:34:25.414Z,1.60
2023-02-22T04:36:52.435Z,1.60
2023-02-22T04:39:19.188Z,1.60
2023-02-22T04:41:47.643Z,1.50
2023-02-22T04:44:14.479Z,1.50
2023-02-22T04:46:41.180Z,1.50
2023-02-22T04:49:07.834Z,1.60
2023-02-22T04:51:36.301Z,1.50
2023-02-22T04:54:03.037Z,1.50
2023-02-22T04:56:29.719Z,1.50
2023-02-22T04:58:56.347Z,1.50
2023-02-22T05:01:23.544Z,1.40
2023-02-22T05:03:50.166Z,1.40
2023-02-22T05:06:17.763Z,1.40
2023-02-22T05:08:44.377Z,1.40
2023-02-22T05:11:10.994Z,1.50
2023-02-22T05:13:37.594Z,1.40
2023-02-22T05:16:04.436Z,1.40
2023-02-22T05:18:31.049Z,1.40
2023-02-22T05:20:57.689Z,1.40
2023-02-22T05:23:24.285Z,1.40
2023-02-22T05:25:50.895Z,1.40
2023-02-22T05:28:17.512Z,1.40
2023-02-22T05:30:44.335Z,1.30
2023-02-22T05:33:11.041Z,1.30
2023-02-22T05:35:37.645Z,1.30
2023-02-22T05:38:04.656Z,1.30
2023-02-22T05:40:31.547Z,1.30
2023-02-22T05:42:58.714Z,1.30
2023-02-22T05:45:27.371Z,1.30
2023-02-22T05:47:54.609Z,1.30
2023-02-22T05:50:21.994Z,1.30
2023-02-22T05:52:48.827Z,1.20
2023-02-22T05:55:16.514Z,1.20
2023-02-22T05:57:43.196Z,1.20
2023-02-22T06:00:11.271Z,1.20
2023-02-22T06:02:37.867Z,1.20
2023-02-22T06:05:04.533Z,1.20
2023-02-22T06:07:31.165Z,1.20
2023-02-22T06:09:57.786Z,1.20
2023-02-22T06:12:24.422Z,1.20
2023-02-22T06:14:51.062Z,1.20
2023-02-22T06:17:19.716Z,1.30
2023-02-22T06:19:47.150Z,1.30
2023-02-22T06:22:17.589Z,1.30
2023-02-22T06:24:44.352Z,1.30
2023-02-22T06:27:11.064Z,1.30
2023-02-22T06:29:37.754Z,1.40
2023-02-22T06:32:04.597Z,1.40
2023-02-22T06:34:31.301Z,1.50
2023-02-22T06:36:59.929Z,1.60
2023-02-22T06:39:26.757Z,1.60
2023-02-22T06:41:55.214Z,1.60
2023-02-22T06:44:21.992Z,1.70
2023-02-22T06:46:51.087Z,1.80
2023-02-22T06:49:18.580Z,1.90
2023-02-22T06:51:45.596Z,1.90
2023-02-22T06:54:12.219Z,2.00
2023-02-22T06:56:38.933Z,2.10
2023-02-22T06:59:05.531Z,2.20
2023-02-22T07:01:32.152Z,2.30
2023-02-22T07:03:58.753Z,2.40
2023-02-22T07:06:25.359Z,2.50
2023-02-22T07:08:51.996Z,2.60
2023-02-22T07:11:18.942Z,2.80
2023-02-22T07:13:45.731Z,2.90
2023-02-22T07:16:12.375Z,3.00
2023-02-22T07:18:39.135Z,3.10
2023-02-22T07:21:06.293Z,3.20
2023-02-22T07:23:33.414Z,3.40
2023-02-22T07:26:01.070Z,3.50
2023-02-22T07:28:27.690Z,3.60
2023-02-22T07:30:54.318Z,3.80
2023-02-22T07:33:20.985Z,4.00
2023-02-22T07:35:49.227Z,4.10
2023-02-22T07:38:16.954Z,4.30
2023-02-22T07:40:43.899Z,4.50
2023-02-22T07:43:21.258Z,4.60
2023-02-22T07:45:49.227Z,4.80
2023-02-22T07:48:17.723Z,5.10
2023-02-22T07:50:44.632Z,5.60
2023-02-22T07:53:15.860Z,6.00
2023-02-22T07:55:43.537Z,6.60
2023-02-22T07:58:12.851Z,7.20
2023-02-22T08:00:40.079Z,7.90
2023-02-22T08:03:10.772Z,8.50
2023-02-22T08:05:38.225Z,8.90
2023-02-22T08:08:06.140Z,9.40
2023-02-22T08:10:33.417Z,10.00
2023-02-22T08:13:00.138Z,10.50
2023-02-22T08:15:28.448Z,10.90
2023-02-22T08:17:55.755Z,11.60
2023-02-22T08:20:22.844Z,12.00
2023-02-22T08:22:50.042Z,12.70
2023-02-22T08:25:17.581Z,13.10
2023-02-22T08:27:44.390Z,13.10
2023-02-22T08:30:13.743Z,12.80
2023-02-22T08:32:40.539Z,12.70
2023-02-22T08:35:07.560Z,12.50
2023-02-22T08:37:34.154Z,12.40
2023-02-22T08:40:00.748Z,12.40
2023-02-22T08:42:27.355Z,12.30
2023-02-22T08:44:53.928Z,12.40
2023-02-22T08:47:20.561Z,12.60
2023-02-22T08:49:47.159Z,13.00
2023-02-22T08:52:13.759Z,13.30
2023-02-22T08:54:40.381Z,13.60
2023-02-22T08:57:07.232Z,14.00
2023-02-22T08:59:33.857Z,14.60
2023-02-22T09:02:01.119Z,15.20
2023-02-22T09:04:27.787Z,16.10
2023-02-22T09:06:54.409Z,17.20
2023-02-22T09:09:21.488Z,18.50
2023-02-22T09:11:48.551Z,19.50
2023-02-22T09:14:16.518Z,20.20
2023-02-22T09:16:46.267Z,21.00
2023-02-22T09:19:12.900Z,21.90
2023-02-22T09:21:40.397Z,22.80
2023-02-22T09:24:08.467Z,23.70
2023-02-22T09:26:39.473Z,24.70
2023-02-22T09:29:09.704Z,25.60
2023-02-22T09:31:37.273Z,26.40
2023-02-22T09:34:06.455Z,27.10
2023-02-22T09:36:33.285Z,27.80
2023-02-22T09:38:59.983Z,28.50
2023-02-22T09:41:35.251Z,29.10
2023-02-22T09:44:22.408Z,29.40
2023-02-22T09:46:49.655Z,29.70
2023-02-22T09:49:34.505Z,29.70
2023-02-22T09:52:13.546Z,29.00
2023-02-22T09:54:43.359Z,27.90
2023-02-22T09:57:13.671Z,26.70
2023-02-22T09:59:42.370Z,25.80
2023-02-22T10:02:24.578Z,24.90
2023-02-22T10:05:05.664Z,23.80
2023-02-22T10:07:37.038Z,22.80
2023-02-22T10:10:06.457Z,22.10
2023-02-22T10:12:36.373Z,21.30
2023-02-22T10:15:19.409Z,20.60
2023-02-22T10:17:49.142Z,20.30
2023-02-22T10:20:15.756Z,20.00
2023-02-22T10:22:43.354Z,19.70
2023-02-22T10:25:17.880Z,19.60
2023-02-22T10:27:47.909Z,19.40
2023-02-22T10:30:24.580Z,19.40
2023-02-22T10:32:55.849Z,19.40
2023-02-22T10:35:27.618Z,19.20
2023-02-22T10:37:59.469Z,19.00
2023-02-22T10:40:32.193Z,18.90
2023-02-22T10:43:03.091Z,18.70
2023-02-22T10:45:32.541Z,18.50
2023-02-22T10:48:00.721Z,18.40
2023-02-22T10:50:29.596Z,18.40
2023-02-22T10:52:56.452Z,18.30
2023-02-22T10:55:23.113Z,18.20
2023-02-22T10:57:51.246Z,18.20
2023-02-22T11:00:26.242Z,18.20
2023-02-22T11:02:57.079Z,18.20
2023-02-22T11:05:28.948Z,18.20
2023-02-22T11:08:17.507Z,18.20
2023-02-22T11:10:44.200Z,18.20
2023-02-22T11:13:25.906Z,18.20
2023-02-22T11:15:58.235Z,18.10
2023-02-22T11:18:26.619Z,18.10
2023-02-22T11:21:00.317Z,18.00
2023-02-22T11:23:26.925Z,18.10
2023-02-22T11:26:01.730Z,18.10
2023-02-22T11:28:32.955Z,18.30
2023-02-22T11:31:09.970Z,18.30
2023-02-22T11:33:37.853Z,18.40
2023-02-22T11:36:08.785Z,18.50
2023-02-22T11:38:53.002Z,18.60
2023-02-22T11:41:24.205Z,18.50
2023-02-22T11:43:51.243Z,18.50
2023-02-22T11:46:22.029Z,18.30
2023-02-22T11:49:00.946Z,18.10
2023-02-22T11:51:36.683Z,18.00
2023-02-22T11:54:12.805Z,18.00
2023-02-22T11:56:50.263Z,18.00
2023-02-22T11:59:27.832Z,18.00
2023-02-22T12:01:54.422Z,17.90
2023-02-22T12:04:39.696Z,17.70
2023-02-22T12:07:36.078Z,17.70
2023-02-22T12:10:09.037Z,17.60
2023-02-22T12:12:35.630Z,17.60
2023-02-22T12:15:14.320Z,17.60
2023-02-22T12:17:43.611Z,17.50
2023-02-22T12:20:21.950Z,17.50
2023-02-22T12:23:00.863Z,17.50
2023-02-22T12:25:47.802Z,17.50
2023-02-22T12:28:24.774Z,17.60
2023-02-22T12:30:54.423Z,17.70
2023-02-22T12:33:25.047Z,17.70
2023-02-22T12:35:54.052Z,17.80
2023-02-22T12:38:23.666Z,17.80
2023-02-22T12:40:54.296Z,17.90
2023-02-22T12:43:23.897Z,17.90
2023-02-22T12:45:54.763Z,17.80
2023-02-22T12:48:21.569Z,17.70
2023-02-22T12:50:50.964Z,17.70
2023-02-22T12:53:46.974Z,17.60
2023-02-22T12:56:22.287Z,17.60
2023-02-22T12:58:54.057Z,17.50
2023-02-22T13:01:25.924Z,17.40
2023-02-22T13:03:53.732Z,17.30
2023-02-22T13:06:35.624Z,17.30
2023-02-22T13:09:23.367Z,17.40
2023-02-22T13:11:53.015Z,17.50
2023-02-22T13:14:25.746Z,17.60
2023-02-22T13:16:56.909Z,17.60
2023-02-22T13:19:29.597Z,17.70
2023-02-22T13:22:16.448Z,17.70
2023-02-22T13:24:52.671Z,17.60
2023-02-22T13:27:22.834Z,17.50
2023-02-22T13:29:52.051Z,17.50
2023-02-22T13:32:51.500Z,17.60
2023-02-22T13:35:35.581Z,17.70
2023-02-22T13:38:25.616Z,17.70
2023-02-22T13:41:02.558Z,17.70
2023-02-22T13:43:44.593Z,17.70
2023-02-22T13:46:34.480Z,17.70
2023-02-22T13:49:01.099Z,17.60
2023-02-22T13:51:30.909Z,17.60
2023-02-22T13:54:09.688Z,17.50
2023-02-22T13:56:39.642Z,17.40
2023-02-22T13:59:06.292Z,17.30
2023-02-22T14:01:41.984Z,17.30
2023-02-22T14:04:27.060Z,17.30
2023-02-22T14:07:04.064Z,17.30
2023-02-22T14:09:49.760Z,17.30
2023-02-22T14:12:34.886Z,17.20
2023-02-22T14:15:26.829Z,17.10
2023-02-22T14:18:07.258Z,17.10
2023-02-22T14:20:36.697Z,17.00
2023-02-22T14:23:22.416Z,17.00
2023-02-22T14:25:49.706Z,17.00
2023-02-22T14:28:36.711Z,16.90
2023-02-22T14:31:29.540Z,16.90
2023-02-22T14:34:01.432Z,16.80
2023-02-22T14:36:34.243Z,16.80
2023-02-22T14:39:16.809Z,16.80
2023-02-22T14:41:47.927Z,16.70
2023-02-22T14:44:15.657Z,16.50
2023-02-22T14:46:44.599Z,16.40
2023-02-22T14:49:18.889Z,16.30
2023-02-22T14:51:54.598Z,16.20
2023-02-22T14:54:25.687Z,16.10
2023-02-22T14:56:52.291Z,16.00
2023-02-22T14:59:20.674Z,16.00
2023-02-22T15:02:01.512Z,15.90
2023-02-22T15:04:34.719Z,15.80
2023-02-22T15:07:07.858Z,15.80
2023-02-22T15:09:37.627Z,15.70
2023-02-22T15:12:04.354Z,15.70
2023-02-22T15:14:32.957Z,15.60
2023-02-22T15:17:01.358Z,15.50
2023-02-22T15:19:28.960Z,15.50
2023-02-22T15:21:56.926Z,15.50
2023-02-22T15:24:36.871Z,15.50
2023-02-22T15:27:07.883Z,15.40
2023-02-22T15:29:44.540Z,15.30
2023-02-22T15:32:36.091Z,15.20
2023-02-22T15:35:12.651Z,15.10
2023-02-22T15:37:39.276Z,15.10
2023-02-22T15:40:14.624Z,15.00
2023-02-22T15:42:52.998Z,15.00
2023-02-22T15:45:20.938Z,14.90
2023-02-22T15:47:51.630Z,14.80
2023-02-22T15:50:23.863Z,14.80
2023-02-22T15:53:10.751Z,14.70
2023-02-22T15:55:39.706Z,14.70
2023-02-22T15:58:10.845Z,14.60
2023-02-22T16:00:38.693Z,14.50
2023-02-22T16:03:06.719Z,14.50
2023-02-22T16:05:38.887Z,14.40
2023-02-22T16:08:13.163Z,14.30
2023-02-22T16:10:41.310Z,14.20
2023-02-22T16:13:14.380Z,14.10
2023-02-22T16:15:54.238Z,14.00
2023-02-22T16:18:25.633Z,13.90
2023-02-22T16:20:59.455Z,13.80
2023-02-22T16:23:26.785Z,13.70
2023-02-22T16:26:07.506Z,13.60
2023-02-22T16:28:35.650Z,13.50
2023-02-22T16:31:02.681Z,13.30
2023-02-22T16:33:33.917Z,13.20
2023-02-22T16:36:05.182Z,13.10
2023-02-22T16:38:33.896Z,13.10
2023-02-22T16:41:00.516Z,13.00
2023-02-22T16:43:29.790Z,12.80
2023-02-22T16:45:56.435Z,12.80
2023-02-22T16:48:24.680Z,12.70
2023-02-22T16:50:52.512Z,12.60
2023-02-22T16:53:20.995Z,12.50
2023-02-22T16:55:48.299Z,12.40
2023-02-22T16:58:15.892Z,12.30
2023-02-22T17:00:42.821Z,12.20
2023-02-22T17:03:11.576Z,12.10
2023-02-22T17:05:38.264Z,12.00
2023-02-22T17:08:05.064Z,11.90
2023-02-22T17:10:32.018Z,11.70
2023-02-22T17:13:00.993Z,11.70
2023-02-22T17:15:30.223Z,11.50
2023-02-22T17:17:56.945Z,11.40
2023-02-22T17:20:32.711Z,11.30
2023-02-22T17:23:00.250Z,11.10
2023-02-22T17:25:32.152Z,10.90
2023-02-22T17:27:58.859Z,10.80
2023-02-22T17:30:25.553Z,10.70
2023-02-22T17:32:52.515Z,10.60
2023-02-22T17:35:23.053Z,10.50
2023-02-22T17:37:50.378Z,10.40
2023-02-22T17:40:17.346Z,10.30
2023-02-22T17:42:44.552Z,10.20
2023-02-22T17:45:13.872Z,10.10
2023-02-22T17:47:42.283Z,10.00
2023-02-22T17:50:12.553Z,10.00
2023-02-22T17:52:39.256Z,9.90
2023-02-22T17:55:06.598Z,9.80
2023-02-22T17:57:33.813Z,9.80
2023-02-22T18:00:01.200Z,9.70
2023-02-22T18:02:27.943Z,9.70
2023-02-22T18:04:54.606Z,9.70
2023-02-22T18:07:21.245Z,9.60
2023-02-22T18:09:47.904Z,9.60
2023-02-22T18:12:14.630Z,9.50
2023-02-22T18:14:41.272Z,9.40
2023-02-22T18:17:07.909Z,9.40
2023-02-22T18:19:34.498Z,9.30
2023-02-22T18:22:03.034Z,9.20
2023-02-22T18:24:34.318Z,9.10
2023-02-22T18:27:01.164Z,9.00
2023-02-22T18:29:28.998Z,8.90
2023-02-22T18:31:56.365Z,8.90
2023-02-22T18:34:26.089Z,8.80
2023-02-22T18:36:52.725Z,8.70
2023-02-22T18:39:19.399Z,8.60
2023-02-22T18:41:48.587Z,8.50
2023-02-22T18:44:15.942Z,8.40
2023-02-22T18:46:43.627Z,8.30
2023-02-22T18:49:14.134Z,8.20
2023-02-22T18:51:43.445Z,8.10
2023-02-22T18:54:11.788Z,8.10
2023-02-22T18:56:40.193Z,7.90
2023-02-22T18:59:08.857Z,7.90
2023-02-22T19:01:38.671Z,7.80
2023-02-22T19:04:09.757Z,7.70
2023-02-22T19:06:36.722Z,7.60
2023-02-22T19:09:04.629Z,7.50
2023-02-22T19:11:31.284Z,7.40
2023-02-22T19:13:58.169Z,7.30
2023-02-22T19:16:25.660Z,7.20
2023-02-22T19:18:56.816Z,7.20
2023-02-22T19:21:24.280Z,7.10
2023-02-22T19:23:51.061Z,7.10
2023-02-22T19:26:20.044Z,7.00
2023-02-22T19:28:47.648Z,7.00
2023-02-22T19:31:16.050Z,6.90
2023-02-22T19:33:43.015Z,6.80
2023-02-22T19:36:10.106Z,6.80
2023-02-22T19:38:37.154Z,6.80
2023-02-22T19:41:23.010Z,6.70
2023-02-22T19:43:51.059Z,6.70
2023-02-22T19:46:18.206Z,6.80
2023-02-22T19:48:45.203Z,6.80
2023-02-22T19:51:13.472Z,6.90
2023-02-22T19:53:40.908Z,7.00
2023-02-22T19:56:09.376Z,7.10
2023-02-22T19:58:37.522Z,7.10
2023-02-22T20:01:12.265Z,7.20
2023-02-22T20:03:39.160Z,7.30
2023-02-22T20:06:09.116Z,7.30
2023-02-22T20:08:36.688Z,7.30
2023-02-22T20:11:04.957Z,7.40
2023-02-22T20:13:32.478Z,7.50
2023-02-22T20:15:59.152Z,7.50
2023-02-22T20:18:25.791Z,7.50
2023-02-22T20:20:52.467Z,7.60
2023-02-22T20:23:19.285Z,7.60
2023-02-22T20:25:56.017Z,7.60
2023-02-22T20:28:24.254Z,7.60
2023-02-22T20:30:51.682Z,7.60
2023-02-22T20:33:19.337Z,7.60
2023-02-22T20:35:46.716Z,7.60
2023-02-22T20:38:14.057Z,7.60
2023-02-22T20:40:41.336Z,7.70
2023-02-22T20:43:08.239Z,7.70
2023-02-22T20:45:35.786Z,7.60
2023-02-22T20:48:02.501Z,7.60
2023-02-22T20:50:29.198Z,7.60
2023-02-22T20:52:55.873Z,7.70
2023-02-22T20:55:22.470Z,7.60
2023-02-22T20:57:49.108Z,7.70
2023-02-22T21:00:18.012Z,7.70
2023-02-22T21:02:46.697Z,7.60
2023-02-22T21:05:13.508Z,7.60
2023-02-22T21:07:40.297Z,7.60
2023-02-22T21:10:07.071Z,7.60
2023-02-22T21:12:34.614Z,7.50
2023-02-22T21:15:01.241Z,7.50
2023-02-22T21:17:28.961Z,7.50
2023-02-22T21:19:56.281Z,7.50
2023-02-22T21:22:24.314Z,7.50
2023-02-22T21:24:51.468Z,7.50
2023-02-22T21:27:18.116Z,7.50
2023-02-22T21:29:44.729Z,7.40
2023-02-22T21:32:12.759Z,7.40
2023-02-22T21:34:39.752Z,7.50
2023-02-22T21:37:08.262Z,7.50
2023-02-22T21:39:35.424Z,7.50
2023-02-22T21:42:02.597Z,7.50
2023-02-22T21:44:29.462Z,7.50
2023-02-22T21:46:56.355Z,7.50
2023-02-22T21:49:23.245Z,7.50
2023-02-22T21:51:51.621Z,7.50
2023-02-22T21:54:18.540Z,7.50
2023-02-22T21:56:45.700Z,7.50
2023-02-22T21:59:18.795Z,7.50
2023-02-22T22:01:47.469Z,7.50
2023-02-22T22:04:18.638Z,7.50
2023-02-22T22:06:46.816Z,7.50
2023-02-22T22:09:19.705Z,7.50
2023-02-22T22:12:00.218Z,7.50
2023-02-22T22:14:27.157Z,7.50
2023-02-22T22:16:55.863Z,7.50
2023-02-22T22:19:22.908Z,7.50
2023-02-22T22:21:53.317Z,7.50
2023-02-22T22:24:21.283Z,7.50
2023-02-22T22:26:51.113Z,7.50
2023-02-22T22:29:18.660Z,7.50
2023-02-22T22:31:45.857Z,7.50
2023-02-22T22:34:12.663Z,7.50
2023-02-22T22:36:39.337Z,7.60
2023-02-22T22:39:13.042Z,7.50
2023-02-22T22:41:40.273Z,7.50
2023-02-22T22:44:09.500Z,7.60
2023-02-22T22:46:42.258Z,7.60
2023-02-22T22:49:10.134Z,7.60
2023-02-22T22:51:37.263Z,7.60
2023-02-22T22:54:05.762Z,7.60
2023-02-22T22:56:35.227Z,7.60
2023-02-22T22:59:07.436Z,7.60
2023-02-22T23:01:39.118Z,7.60
2023-02-22T23:04:10.462Z,7.60
2023-02-22T23:06:39.994Z,7.60
2023-02-22T23:09:11.842Z,7.60
2023-02-22T23:11:44.258Z,7.60
2023-02-22T23:14:15.392Z,7.60
2023-02-22T23:16:42.890Z,7.60
2023-02-22T23:19:09.703Z,7.60
2023-02-22T23:21:36.773Z,7.60
2023-02-22T23:24:06.845Z,7.60
2023-02-22T23:26:34.023Z,7.60
2023-02-22T23:29:01.259Z,7.50
2023-02-22T23:31:32.107Z,7.50
2023-02-22T23:33:59.075Z,7.50
2023-02-22T23:36:26.160Z,7.50
2023-02-22T23:38:52.819Z,7.50
2023-02-22T23:41:19.855Z,7.40
2023-02-22T23:43:47.255Z,7.40
2023-02-22T23:46:18.379Z,7.40
2023-02-22T23:48:50.042Z,7.30
2023-02-22T23:51:23.529Z,7.30
2023-02-22T23:53:50.587Z,7.30
2023-02-22T23:56:20.933Z,7.30
2023-02-22T23:58:50.183Z,7.20
